Roslyn Estates, New York
Current Conditions -  °F | °C
As of 6:51 AM on Thursday 18 Dec 2014 (Local Time) from KLGA Reporting Station
Broken Clouds Broken Clouds  
Wind Chill: 27°   Ceiling: 4000
Heat Index: 38°   Visibility: 10mi
Dew Point: 24°   Wind: 23mph
Humidity: 57%   Direction: 310°NW
Pressure: 29.95"   Gusts: 29mph
Location:  40.8044°N, 73.641°W
Report Text: KLGA 181151Z 31020G25KT 10SM BKN040 BKN100 03/M04 A2995 RMK AO2 PK WND 29030/1113 SLP143 60000 T00331044 10056 20033 53018
Loading
Personal Weather Stations






























Interactive Weather Map New forecast layout! Learn more

10-Day Weather Forecast

Advertisements
Track Severe Weather on mobile